Time;durP1;ratioP1;P1;durP2;ratioP2;P2;SDS_P1;SDS_P2;PMS_P1;PMS_P2;Temp;Humidity;BMP_temperature;BMP_pressure;BME280_temperature;BME280_humidity;BME280_pressure;Samples;Min_cycle;Max_cycle;Signal;HPM_P1;HPM_P2
2023/03/24 00:00:45;;;;;;;;;;;20.40;47.70;;;;;;5057995;28;19928;-63
2023/03/24 00:03:12;;;;;;;;;;;20.40;47.70;;;;;;5057782;28;19920;-63
2023/03/24 00:05:39;;;;;;;;;;;20.40;47.70;;;;;;5055572;28;19927;-63
2023/03/24 00:08:06;;;;;;;;;;;20.40;47.70;;;;;;5057677;28;19924;-63
2023/03/24 00:10:35;;;;;;;;;;;20.40;47.80;;;;;;5073577;28;19924;-63
2023/03/24 00:13:02;;;;;;;;;;;20.40;47.80;;;;;;5057246;28;19924;-63
2023/03/24 00:15:30;;;;;;;;;;;20.40;47.70;;;;;;5075011;28;19975;-63
2023/03/24 00:17:56;;;;;;;;;;;20.40;47.80;;;;;;5074930;28;19921;-63
2023/03/24 00:20:25;;;;;;;;;;;20.40;47.80;;;;;;5075116;28;19921;-63
2023/03/24 00:22:55;;;;;;;;;;;20.40;47.70;;;;;;5057610;28;19920;-63
2023/03/24 00:25:23;;;;;;;;;;;20.40;47.70;;;;;;5074693;28;20287;-63
2023/03/24 00:27:52;;;;;;;;;;;20.40;47.70;;;;;;5055218;28;19973;-63
2023/03/24 00:30:19;;;;;;;;;;;20.40;47.80;;;;;;5056682;28;19920;-63
2023/03/24 00:32:45;;;;;;;;;;;20.40;47.80;;;;;;5056428;28;20282;-63
2023/03/24 00:35:13;;;;;;;;;;;20.40;47.70;;;;;;5041378;28;19920;-63
2023/03/24 00:37:40;;;;;;;;;;;20.40;47.80;;;;;;5056919;28;19935;-63
2023/03/24 00:40:11;;;;;;;;;;;20.40;47.80;;;;;;5072681;28;19928;-63
2023/03/24 00:42:38;;;;;;;;;;;20.40;47.80;;;;;;5057525;28;20025;-63
2023/03/24 00:45:07;;;;;;;;;;;20.40;47.80;;;;;;5056497;28;19920;-63
2023/03/24 00:47:35;;;;;;;;;;;20.40;47.80;;;;;;5055102;28;20023;-63
2023/03/24 00:50:02;;;;;;;;;;;20.40;47.80;;;;;;5056764;28;19920;-63
2023/03/24 00:52:32;;;;;;;;;;;20.40;47.70;;;;;;5072671;28;20301;-63
2023/03/24 00:55:00;;;;;;;;;;;20.40;47.80;;;;;;5056337;28;19963;-63
2023/03/24 00:57:28;;;;;;;;;;;20.40;47.80;;;;;;5053799;28;19925;-63
2023/03/24 00:59:56;;;;;;;;;;;20.40;47.80;;;;;;5074332;28;19920;-63
2023/03/24 01:02:25;;;;;;;;;;;20.40;47.80;;;;;;5057237;28;19924;-63
2023/03/24 01:04:53;;;;;;;;;;;20.40;47.80;;;;;;5054613;28;20019;-63
2023/03/24 01:07:20;;;;;;;;;;;20.40;47.80;;;;;;5054324;28;19927;-63
2023/03/24 01:09:50;;;;;;;;;;;20.40;47.80;;;;;;5048668;28;19924;-63
2023/03/24 01:12:17;;;;;;;;;;;20.40;47.80;;;;;;5056244;28;19954;-63
2023/03/24 01:14:45;;;;;;;;;;;20.40;47.80;;;;;;5056475;28;19921;-63
2023/03/24 01:17:12;;;;;;;;;;;20.40;47.80;;;;;;5056045;28;19927;-63
2023/03/24 01:19:41;;;;;;;;;;;20.40;47.80;;;;;;5056600;28;19927;-63
2023/03/24 01:22:08;;;;;;;;;;;20.40;47.80;;;;;;5054145;28;20027;-63
2023/03/24 01:24:35;;;;;;;;;;;20.40;47.80;;;;;;5055892;28;19973;-63
2023/03/24 01:27:02;;;;;;;;;;;20.40;47.80;;;;;;5055071;28;20014;-62
2023/03/24 01:29:29;;;;;;;;;;;20.40;47.80;;;;;;5071481;28;19920;-63
2023/03/24 01:31:56;;;;;;;;;;;20.40;47.80;;;;;;5071240;28;19928;-63
2023/03/24 01:34:23;;;;;;;;;;;20.40;47.80;;;;;;5051060;28;19979;-63
2023/03/24 01:36:52;;;;;;;;;;;20.40;47.80;;;;;;5057242;28;19920;-62
2023/03/24 01:39:19;;;;;;;;;;;20.40;47.80;;;;;;5071332;28;20355;-63
2023/03/24 01:41:46;;;;;;;;;;;20.40;47.80;;;;;;5052564;28;19921;-62
2023/03/24 01:44:29;;;;;;;;;;;20.40;47.80;;;;;;5036697;28;19920;-63
2023/03/24 01:46:56;;;;;;;;;;;20.40;47.80;;;;;;5053852;28;19920;-63
2023/03/24 01:49:24;;;;;;;;;;;20.40;47.80;;;;;;5055401;28;19928;-63
2023/03/24 01:51:52;;;;;;;;;;;20.40;47.80;;;;;;5073013;28;19927;-63
2023/03/24 01:54:20;;;;;;;;;;;20.40;47.80;;;;;;5037442;28;19927;-63
2023/03/24 01:56:48;;;;;;;;;;;20.40;47.80;;;;;;5051054;28;19966;-63
2023/03/24 01:59:17;;;;;;;;;;;20.40;47.80;;;;;;5050366;28;19920;-59
2023/03/24 02:01:44;;;;;;;;;;;20.40;47.80;;;;;;5072318;28;19925;-64
2023/03/24 02:04:11;;;;;;;;;;;20.40;47.90;;;;;;5075799;28;19920;-63
2023/03/24 02:06:42;;;;;;;;;;;20.40;47.80;;;;;;5057155;28;20077;-63
2023/03/24 02:09:11;;;;;;;;;;;20.40;47.90;;;;;;5056628;28;19956;-63
2023/03/24 02:11:38;;;;;;;;;;;20.40;47.90;;;;;;5057894;28;19921;-63
2023/03/24 02:14:05;;;;;;;;;;;20.40;47.80;;;;;;5059652;28;19920;-63
2023/03/24 02:16:47;;;;;;;;;;;20.40;47.90;;;;;;5059305;28;20385;-63
2023/03/24 02:19:37;;;;;;;;;;;20.40;47.90;;;;;;5027047;28;19924;-63
2023/03/24 02:22:12;;;;;;;;;;;20.40;47.90;;;;;;5059322;28;20355;-63
2023/03/24 02:25:01;;;;;;;;;;;20.40;47.90;;;;;;5057503;28;20369;-63
2023/03/24 02:27:46;;;;;;;;;;;20.40;47.90;;;;;;5034485;28;19921;-63
2023/03/24 02:30:28;;;;;;;;;;;20.40;47.90;;;;;;5075130;28;20255;-63
2023/03/24 02:33:04;;;;;;;;;;;20.40;47.90;;;;;;5056222;28;20274;-63
2023/03/24 02:35:45;;;;;;;;;;;20.40;47.90;;;;;;5056972;28;19928;-63
2023/03/24 02:38:19;;;;;;;;;;;20.40;47.90;;;;;;5071316;28;20010;-63
2023/03/24 02:40:47;;;;;;;;;;;20.40;47.90;;;;;;5057889;28;19924;-64
2023/03/24 02:43:17;;;;;;;;;;;20.40;47.90;;;;;;5058882;28;19924;-63
2023/03/24 02:45:45;;;;;;;;;;;20.40;47.90;;;;;;5056360;28;19931;-63
2023/03/24 02:48:19;;;;;;;;;;;20.40;47.90;;;;;;5056780;28;19927;-63
2023/03/24 02:50:49;;;;;;;;;;;20.40;47.90;;;;;;5057762;28;19920;-63
2023/03/24 02:53:17;;;;;;;;;;;20.40;47.90;;;;;;5054316;28;19921;-60
2023/03/24 02:55:46;;;;;;;;;;;20.40;47.90;;;;;;5037920;28;19925;-63
2023/03/24 02:58:15;;;;;;;;;;;20.40;47.90;;;;;;5045664;28;19924;-63
2023/03/24 03:00:45;;;;;;;;;;;20.40;47.90;;;;;;5056421;28;19951;-63
2023/03/24 03:03:13;;;;;;;;;;;20.40;47.90;;;;;;5055946;28;19928;-63
2023/03/24 03:05:42;;;;;;;;;;;20.40;48.00;;;;;;5055278;28;19927;-62
2023/03/24 03:08:09;;;;;;;;;;;20.40;47.90;;;;;;5074259;28;19928;-63
2023/03/24 03:10:36;;;;;;;;;;;20.40;47.90;;;;;;5074901;28;19920;-63
2023/03/24 03:13:06;;;;;;;;;;;20.40;47.90;;;;;;5056912;28;20371;-63
2023/03/24 03:15:34;;;;;;;;;;;20.40;47.90;;;;;;5055022;28;19927;-63
2023/03/24 03:18:02;;;;;;;;;;;20.40;47.90;;;;;;5072898;28;19928;-63
2023/03/24 03:20:29;;;;;;;;;;;20.40;48.00;;;;;;5056075;28;20351;-63
2023/03/24 03:22:57;;;;;;;;;;;20.40;47.90;;;;;;5055969;28;19920;-63
2023/03/24 03:25:25;;;;;;;;;;;20.40;47.90;;;;;;5056630;28;19927;-63
2023/03/24 03:27:52;;;;;;;;;;;20.40;47.90;;;;;;5058340;28;19927;-63
2023/03/24 03:30:21;;;;;;;;;;;20.40;47.90;;;;;;5074049;28;19928;-63
2023/03/24 03:32:53;;;;;;;;;;;20.40;48.00;;;;;;5055880;28;19927;-63
2023/03/24 03:35:21;;;;;;;;;;;20.40;47.90;;;;;;5079876;28;19927;-63
2023/03/24 03:37:50;;;;;;;;;;;20.40;47.90;;;;;;5054708;28;19920;-63
2023/03/24 03:40:17;;;;;;;;;;;20.40;48.00;;;;;;5056337;28;19921;-63
2023/03/24 03:42:45;;;;;;;;;;;20.40;48.50;;;;;;5056337;28;19935;-63
2023/03/24 03:45:13;;;;;;;;;;;20.40;48.00;;;;;;5057854;28;19920;-63
2023/03/24 03:47:39;;;;;;;;;;;20.40;48.00;;;;;;5056739;28;19965;-62
2023/03/24 03:50:09;;;;;;;;;;;20.40;48.50;;;;;;5057475;28;19924;-62
2023/03/24 03:52:37;;;;;;;;;;;20.40;48.00;;;;;;5055595;28;20030;-63
2023/03/24 03:55:04;;;;;;;;;;;20.40;48.00;;;;;;5057745;28;19927;-63
2023/03/24 03:57:33;;;;;;;;;;;20.40;48.00;;;;;;5057908;28;19921;-64
2023/03/24 04:00:06;;;;;;;;;;;20.40;48.00;;;;;;5075526;28;19920;-63
2023/03/24 04:02:36;;;;;;;;;;;20.40;48.00;;;;;;5058084;28;19928;-63
2023/03/24 04:05:06;;;;;;;;;;;20.40;48.00;;;;;;5075233;28;19928;-63
2023/03/24 04:07:36;;;;;;;;;;;20.40;48.00;;;;;;5057500;28;20009;-62
2023/03/24 04:10:05;;;;;;;;;;;20.40;48.00;;;;;;5057473;28;19931;-63
2023/03/24 04:12:38;;;;;;;;;;;20.40;48.00;;;;;;5073351;28;19968;-63
2023/03/24 04:15:10;;;;;;;;;;;20.40;48.00;;;;;;5057930;28;19924;-63
2023/03/24 04:17:42;;;;;;;;;;;20.40;48.00;;;;;;5075445;28;19931;-63
2023/03/24 04:20:11;;;;;;;;;;;20.40;48.00;;;;;;5056932;28;19982;-63
2023/03/24 04:22:43;;;;;;;;;;;20.40;48.00;;;;;;5055194;28;20196;-63
2023/03/24 04:25:11;;;;;;;;;;;20.40;48.00;;;;;;5057639;28;19921;-62
2023/03/24 04:27:38;;;;;;;;;;;20.40;48.00;;;;;;5055787;28;19927;-63
2023/03/24 04:30:07;;;;;;;;;;;20.40;48.00;;;;;;5058361;28;19974;-62
2023/03/24 04:32:35;;;;;;;;;;;20.40;48.00;;;;;;5057587;28;19928;-62
2023/03/24 04:35:03;;;;;;;;;;;20.40;48.00;;;;;;5056012;28;19921;-62
2023/03/24 04:37:36;;;;;;;;;;;20.40;48.10;;;;;;5073554;28;19921;-63
2023/03/24 04:40:06;;;;;;;;;;;20.40;48.00;;;;;;5054520;28;19974;-63
2023/03/24 04:42:34;;;;;;;;;;;20.40;48.00;;;;;;5074632;28;19920;-63
2023/03/24 04:45:01;;;;;;;;;;;20.40;48.00;;;;;;5056818;28;19920;-63
2023/03/24 04:47:30;;;;;;;;;;;20.40;48.00;;;;;;5074564;28;19920;-63
2023/03/24 04:50:00;;;;;;;;;;;20.40;48.00;;;;;;5057292;28;19920;-62
2023/03/24 04:52:28;;;;;;;;;;;20.40;48.00;;;;;;5052930;28;20016;-62
2023/03/24 04:54:55;;;;;;;;;;;20.40;48.00;;;;;;5056151;28;19966;-63
2023/03/24 04:57:23;;;;;;;;;;;20.40;48.10;;;;;;5057014;28;19928;-63
2023/03/24 04:59:49;;;;;;;;;;;20.40;48.10;;;;;;5054817;28;19921;-63
2023/03/24 05:02:16;;;;;;;;;;;20.40;48.00;;;;;;5072455;28;19920;-63
2023/03/24 05:04:43;;;;;;;;;;;20.40;48.60;;;;;;5056823;28;19947;-63
2023/03/24 05:07:10;;;;;;;;;;;20.40;48.10;;;;;;5074775;28;19924;-63
2023/03/24 05:09:37;;;;;;;;;;;20.40;48.10;;;;;;5056872;28;20317;-63
2023/03/24 05:12:04;;;;;;;;;;;20.40;48.00;;;;;;5071905;28;19921;-62
2023/03/24 05:14:32;;;;;;;;;;;20.40;48.10;;;;;;5072487;28;19924;-62
2023/03/24 05:16:58;;;;;;;;;;;20.40;48.10;;;;;;5056951;28;19920;-63
2023/03/24 05:19:25;;;;;;;;;;;20.40;48.10;;;;;;5073878;28;19922;-63
2023/03/24 05:21:52;;;;;;;;;;;20.40;48.10;;;;;;5054343;28;19920;-62
2023/03/24 05:24:19;;;;;;;;;;;20.40;48.10;;;;;;5061600;28;19950;-63
2023/03/24 05:26:46;;;;;;;;;;;20.40;48.10;;;;;;5071677;28;19924;-64
2023/03/24 05:29:12;;;;;;;;;;;20.40;48.10;;;;;;5054174;28;19928;-64
2023/03/24 05:31:41;;;;;;;;;;;20.40;48.10;;;;;;5055731;28;19921;-62
2023/03/24 05:34:07;;;;;;;;;;;20.40;48.10;;;;;;5052466;28;19947;-63
2023/03/24 05:36:34;;;;;;;;;;;20.40;48.10;;;;;;5071691;28;19924;-64
2023/03/24 05:39:01;;;;;;;;;;;20.40;48.10;;;;;;5055637;28;19920;-64
2023/03/24 05:41:28;;;;;;;;;;;20.40;48.10;;;;;;5054068;28;19921;-64
2023/03/24 05:43:54;;;;;;;;;;;20.40;48.10;;;;;;5055886;28;19921;-63
2023/03/24 05:46:21;;;;;;;;;;;20.40;48.10;;;;;;5055769;28;19927;-63
2023/03/24 05:48:50;;;;;;;;;;;20.40;48.10;;;;;;5053903;28;19924;-64
2023/03/24 05:51:16;;;;;;;;;;;20.40;48.10;;;;;;5053964;28;19974;-63
2023/03/24 05:53:43;;;;;;;;;;;20.40;48.20;;;;;;5055824;28;20408;-63
2023/03/24 05:56:10;;;;;;;;;;;20.40;48.10;;;;;;5054071;28;20326;-63
2023/03/24 05:58:38;;;;;;;;;;;20.40;48.20;;;;;;5053207;28;19974;-63
2023/03/24 06:01:06;;;;;;;;;;;20.40;48.10;;;;;;5036588;28;19955;-63
2023/03/24 06:03:37;;;;;;;;;;;20.40;48.20;;;;;;5053173;28;19980;-64
2023/03/24 06:06:06;;;;;;;;;;;20.40;48.20;;;;;;5055722;28;19921;-63
2023/03/24 06:08:33;;;;;;;;;;;20.40;48.70;;;;;;5071339;28;19927;-64
2023/03/24 06:11:01;;;;;;;;;;;20.40;48.20;;;;;;5059659;28;20042;-64
2023/03/24 06:13:27;;;;;;;;;;;20.40;48.20;;;;;;5054121;28;19920;-64
2023/03/24 06:15:57;;;;;;;;;;;20.40;48.20;;;;;;5054678;28;20431;-64
2023/03/24 06:18:26;;;;;;;;;;;20.40;48.20;;;;;;5051088;28;20194;-62
2023/03/24 06:20:55;;;;;;;;;;;20.40;48.20;;;;;;5073561;28;19974;-63
2023/03/24 06:23:24;;;;;;;;;;;20.40;48.20;;;;;;5056751;28;19921;-64
2023/03/24 06:25:51;;;;;;;;;;;20.40;48.20;;;;;;5073356;28;19928;-64
2023/03/24 06:28:18;;;;;;;;;;;20.40;48.20;;;;;;5073428;28;19950;-64
2023/03/24 06:30:45;;;;;;;;;;;20.40;48.20;;;;;;5056259;28;19921;-63
2023/03/24 06:33:12;;;;;;;;;;;20.40;48.20;;;;;;5056048;28;20003;-63
2023/03/24 06:35:39;;;;;;;;;;;20.40;48.20;;;;;;5073016;28;19920;-63
2023/03/24 06:38:05;;;;;;;;;;;20.40;48.20;;;;;;5065057;28;19920;-63
2023/03/24 06:40:34;;;;;;;;;;;20.40;48.20;;;;;;5057186;28;19928;-63
2023/03/24 06:43:00;;;;;;;;;;;20.40;48.20;;;;;;5055310;28;19928;-63
2023/03/24 06:45:27;;;;;;;;;;;20.40;48.20;;;;;;5058540;28;19920;-62
2023/03/24 06:47:54;;;;;;;;;;;20.40;48.20;;;;;;5057251;28;19925;-63
2023/03/24 06:50:21;;;;;;;;;;;20.40;48.20;;;;;;5056998;28;19920;-63
2023/03/24 06:52:48;;;;;;;;;;;20.40;48.20;;;;;;5059271;28;19927;-63
2023/03/24 06:55:15;;;;;;;;;;;20.40;48.20;;;;;;5055762;28;19921;-62
2023/03/24 06:57:43;;;;;;;;;;;20.40;48.20;;;;;;5058873;28;19921;-62
2023/03/24 07:00:12;;;;;;;;;;;20.40;48.20;;;;;;5058736;28;19928;-62
2023/03/24 07:02:39;;;;;;;;;;;20.40;48.20;;;;;;5058502;28;20260;-62
2023/03/24 07:05:07;;;;;;;;;;;20.40;48.10;;;;;;5056727;28;19920;-62
2023/03/24 07:07:34;;;;;;;;;;;20.40;48.10;;;;;;5057346;28;19920;-63
2023/03/24 07:10:01;;;;;;;;;;;20.40;48.10;;;;;;5059643;28;19926;-62
2023/03/24 07:12:27;;;;;;;;;;;20.40;48.20;;;;;;5071590;28;19974;-62
2023/03/24 07:14:56;;;;;;;;;;;20.40;48.20;;;;;;5070657;28;19920;-63
2023/03/24 07:17:22;;;;;;;;;;;20.40;48.20;;;;;;5074280;28;20011;-62
2023/03/24 07:19:49;;;;;;;;;;;20.40;48.30;;;;;;5058487;28;19946;-62
2023/03/24 07:22:16;;;;;;;;;;;20.40;48.30;;;;;;5056815;28;19921;-64
2023/03/24 07:24:43;;;;;;;;;;;20.40;48.30;;;;;;5059148;28;19921;-63
2023/03/24 07:27:10;;;;;;;;;;;20.40;48.30;;;;;;5076224;28;19921;-63
2023/03/24 07:29:37;;;;;;;;;;;20.40;48.30;;;;;;5057887;28;19954;-63
2023/03/24 07:32:06;;;;;;;;;;;20.40;48.30;;;;;;5052791;28;19920;-62
2023/03/24 07:34:34;;;;;;;;;;;20.40;48.30;;;;;;5040279;28;19932;-62
2023/03/24 07:37:01;;;;;;;;;;;20.50;48.40;;;;;;5058456;28;19921;-63
2023/03/24 07:39:27;;;;;;;;;;;20.40;48.30;;;;;;5071954;28;19920;-62
2023/03/24 07:41:54;;;;;;;;;;;20.40;48.30;;;;;;5074811;28;19920;-62
2023/03/24 07:44:21;;;;;;;;;;;20.50;48.40;;;;;;5075973;28;19920;-63
2023/03/24 07:46:48;;;;;;;;;;;20.40;48.30;;;;;;5076009;28;19921;-63
2023/03/24 07:49:16;;;;;;;;;;;20.50;48.40;;;;;;5072838;28;19942;-62
2023/03/24 07:51:43;;;;;;;;;;;20.40;48.30;;;;;;5075124;28;19928;-62
2023/03/24 07:54:10;;;;;;;;;;;20.50;48.40;;;;;;5072587;28;20305;-63
2023/03/24 07:56:36;;;;;;;;;;;20.50;48.40;;;;;;5073723;28;19925;-62
2023/03/24 07:59:03;;;;;;;;;;;20.40;48.30;;;;;;5073558;28;20366;-62
2023/03/24 08:01:30;;;;;;;;;;;20.50;48.40;;;;;;5074418;28;19927;-63
2023/03/24 08:03:57;;;;;;;;;;;20.50;48.40;;;;;;5074502;28;19968;-63
2023/03/24 08:06:25;;;;;;;;;;;20.50;48.40;;;;;;5074107;28;19920;-62
2023/03/24 08:08:51;;;;;;;;;;;20.50;48.40;;;;;;5073990;28;19986;-62
2023/03/24 08:11:18;;;;;;;;;;;20.50;48.40;;;;;;5074061;28;19924;-63
2023/03/24 08:13:45;;;;;;;;;;;20.50;48.40;;;;;;5075423;28;19920;-62
2023/03/24 08:16:12;;;;;;;;;;;20.50;48.40;;;;;;5072195;28;19920;-62
2023/03/24 08:18:39;;;;;;;;;;;20.50;48.40;;;;;;5075457;28;19928;-62
2023/03/24 08:21:06;;;;;;;;;;;20.50;48.40;;;;;;5074703;28;19927;-62
2023/03/24 08:23:35;;;;;;;;;;;20.50;48.40;;;;;;5073806;28;19920;-62
2023/03/24 08:26:02;;;;;;;;;;;20.50;48.40;;;;;;5073219;28;20304;-63
2023/03/24 08:28:28;;;;;;;;;;;20.50;48.40;;;;;;5071532;28;19973;-62
2023/03/24 08:30:55;;;;;;;;;;;20.50;48.40;;;;;;5053677;28;19974;-63
2023/03/24 08:33:22;;;;;;;;;;;20.50;48.40;;;;;;5051949;28;19967;-62
2023/03/24 08:35:50;;;;;;;;;;;20.50;48.40;;;;;;5037063;28;20343;-62
2023/03/24 08:38:16;;;;;;;;;;;20.50;48.40;;;;;;5054704;28;19943;-63
2023/03/24 08:40:44;;;;;;;;;;;20.50;48.40;;;;;;5073185;28;19942;-62
2023/03/24 08:43:13;;;;;;;;;;;20.50;48.40;;;;;;5073436;28;19927;-63
2023/03/24 08:45:40;;;;;;;;;;;20.50;48.40;;;;;;5074476;28;19920;-63
2023/03/24 08:48:07;;;;;;;;;;;20.50;48.40;;;;;;5072247;28;19957;-62
2023/03/24 08:50:34;;;;;;;;;;;20.50;48.40;;;;;;5070090;28;20359;-62
2023/03/24 08:53:01;;;;;;;;;;;20.50;48.40;;;;;;5061559;28;20329;-62
2023/03/24 08:55:28;;;;;;;;;;;20.50;48.40;;;;;;5051770;28;19946;-62
2023/03/24 08:57:56;;;;;;;;;;;20.50;48.40;;;;;;5056645;28;19970;-62
2023/03/24 09:00:23;;;;;;;;;;;20.50;48.40;;;;;;5054624;28;19920;-62
2023/03/24 09:02:50;;;;;;;;;;;20.50;48.30;;;;;;5054609;28;19966;-62
2023/03/24 09:05:18;;;;;;;;;;;20.50;48.30;;;;;;5054051;28;20006;-63
2023/03/24 09:07:45;;;;;;;;;;;20.50;48.30;;;;;;5052925;28;20019;-62
2023/03/24 09:10:12;;;;;;;;;;;20.50;48.30;;;;;;5053972;28;19920;-63
2023/03/24 09:12:38;;;;;;;;;;;20.50;48.30;;;;;;5074172;28;19924;-63
2023/03/24 09:15:07;;;;;;;;;;;20.50;48.30;;;;;;5054420;28;19921;-62
2023/03/24 09:17:34;;;;;;;;;;;20.50;48.30;;;;;;5059220;28;19992;-62
2023/03/24 09:20:01;;;;;;;;;;;20.50;48.30;;;;;;5064521;28;19924;-62
2023/03/24 09:22:27;;;;;;;;;;;20.50;48.20;;;;;;5067124;28;19925;-62
2023/03/24 09:24:54;;;;;;;;;;;20.50;48.20;;;;;;5069770;28;19920;-62
2023/03/24 09:27:22;;;;;;;;;;;20.50;48.20;;;;;;5074138;28;20354;-62
2023/03/24 09:29:49;;;;;;;;;;;20.50;48.20;;;;;;5076593;28;19920;-63
2023/03/24 09:32:17;;;;;;;;;;;20.50;48.20;;;;;;5075947;28;19943;-63
2023/03/24 09:34:44;;;;;;;;;;;20.50;48.20;;;;;;5072048;28;19989;-62
2023/03/24 09:37:11;;;;;;;;;;;20.50;48.20;;;;;;5061246;28;19970;-62
2023/03/24 09:39:37;;;;;;;;;;;20.50;48.20;;;;;;5052825;28;19932;-61
2023/03/24 09:42:05;;;;;;;;;;;20.50;48.10;;;;;;5054084;28;19943;-54
2023/03/24 09:44:33;;;;;;;;;;;20.50;48.00;;;;;;5054718;28;20396;-54
2023/03/24 09:47:00;;;;;;;;;;;20.50;47.40;;;;;;5053760;28;19927;-52
2023/03/24 09:49:29;;;;;;;;;;;20.40;47.20;;;;;;5061901;28;20039;-54
2023/03/24 09:51:56;;;;;;;;;;;20.40;47.10;;;;;;5070684;28;19921;-50
2023/03/24 09:54:26;;;;;;;;;;;20.40;47.10;;;;;;5062743;28;19920;-51
2023/03/24 09:56:53;;;;;;;;;;;20.40;47.10;;;;;;5054913;28;19920;-52
2023/03/24 09:59:20;;;;;;;;;;;20.40;47.10;;;;;;5073673;28;19920;-55
2023/03/24 10:01:46;;;;;;;;;;;20.40;47.20;;;;;;5072192;28;19921;-58
2023/03/24 10:04:14;;;;;;;;;;;20.40;47.20;;;;;;5056213;28;19921;-57
2023/03/24 10:06:42;;;;;;;;;;;20.40;47.20;;;;;;5053496;28;19924;-58
2023/03/24 10:09:15;;;;;;;;;;;20.40;47.20;;;;;;5071812;28;20359;-58
2023/03/24 10:11:42;;;;;;;;;;;20.40;47.20;;;;;;5073107;28;19928;-58
2023/03/24 10:14:12;;;;;;;;;;;20.40;47.10;;;;;;5072421;28;19921;-59
2023/03/24 10:16:41;;;;;;;;;;;20.40;47.10;;;;;;5054202;28;19921;-57
2023/03/24 10:19:12;;;;;;;;;;;20.40;47.00;;;;;;5057454;28;19921;-58
2023/03/24 10:21:38;;;;;;;;;;;20.40;47.00;;;;;;5057511;28;19925;-56
2023/03/24 10:24:08;;;;;;;;;;;20.40;47.00;;;;;;5076989;28;20046;-57
2023/03/24 10:26:37;;;;;;;;;;;20.40;46.90;;;;;;5076148;28;19921;-57
2023/03/24 10:29:09;;;;;;;;;;;20.40;46.90;;;;;;5062780;28;19962;-58
2023/03/24 10:31:36;;;;;;;;;;;20.40;46.90;;;;;;5056323;28;19970;-58
2023/03/24 10:34:03;;;;;;;;;;;20.40;46.90;;;;;;5072267;28;20035;-57
2023/03/24 10:36:29;;;;;;;;;;;20.40;46.90;;;;;;5055716;28;19920;-57
2023/03/24 10:38:56;;;;;;;;;;;20.40;46.90;;;;;;5057822;28;19920;-57
2023/03/24 10:41:25;;;;;;;;;;;20.40;46.80;;;;;;5072849;28;19924;-58
2023/03/24 10:43:51;;;;;;;;;;;20.40;46.70;;;;;;5064187;28;19924;-57
2023/03/24 10:46:20;;;;;;;;;;;20.40;46.60;;;;;;5066949;28;20005;-57
2023/03/24 10:48:47;;;;;;;;;;;20.40;46.70;;;;;;5056270;28;19920;-58
2023/03/24 10:51:15;;;;;;;;;;;20.40;46.60;;;;;;5071433;28;19920;-55
2023/03/24 10:53:42;;;;;;;;;;;20.40;46.60;;;;;;5056831;28;19963;-57
2023/03/24 10:56:09;;;;;;;;;;;20.40;46.60;;;;;;5061080;28;19974;-58
2023/03/24 10:58:38;;;;;;;;;;;20.40;46.60;;;;;;5064588;28;19920;-57
2023/03/24 11:01:06;;;;;;;;;;;20.40;46.60;;;;;;5062915;28;19920;-58
2023/03/24 11:03:34;;;;;;;;;;;20.40;46.60;;;;;;5073514;28;20325;-58
2023/03/24 11:06:01;;;;;;;;;;;20.40;46.60;;;;;;5054192;28;19921;-58
2023/03/24 11:08:29;;;;;;;;;;;20.40;46.70;;;;;;5055233;28;19920;-58
2023/03/24 11:10:55;;;;;;;;;;;20.40;46.60;;;;;;5060952;28;19927;-56
2023/03/24 11:13:27;;;;;;;;;;;20.40;46.60;;;;;;5073559;28;19927;-56
2023/03/24 11:15:56;;;;;;;;;;;20.40;46.50;;;;;;5071717;28;19966;-57
2023/03/24 11:18:22;;;;;;;;;;;20.40;46.50;;;;;;5059011;28;20318;-56
2023/03/24 11:20:52;;;;;;;;;;;20.40;46.50;;;;;;5075691;28;19947;-56
2023/03/24 11:23:19;;;;;;;;;;;20.40;46.50;;;;;;5071547;28;19924;-56
2023/03/24 11:25:47;;;;;;;;;;;20.40;46.30;;;;;;5058734;28;19930;-55
2023/03/24 11:28:14;;;;;;;;;;;20.40;46.90;;;;;;5076234;28;19965;-58
2023/03/24 11:30:44;;;;;;;;;;;20.40;46.10;;;;;;5055285;28;19920;-58
2023/03/24 11:33:14;;;;;;;;;;;20.40;46.10;;;;;;5074943;28;19955;-58
2023/03/24 11:35:41;;;;;;;;;;;20.40;46.10;;;;;;5074728;28;19960;-57
2023/03/24 11:38:08;;;;;;;;;;;20.40;46.10;;;;;;5072707;28;19927;-58
2023/03/24 11:40:34;;;;;;;;;;;20.40;46.10;;;;;;5074906;28;19924;-57
2023/03/24 11:43:02;;;;;;;;;;;20.40;46.10;;;;;;5075951;28;19928;-57
2023/03/24 11:45:29;;;;;;;;;;;20.40;45.90;;;;;;5074607;28;19927;-58
2023/03/24 11:47:56;;;;;;;;;;;20.40;46.00;;;;;;5071975;28;19927;-58
2023/03/24 11:50:25;;;;;;;;;;;20.40;45.80;;;;;;5074812;28;19927;-59
2023/03/24 11:52:52;;;;;;;;;;;20.40;46.00;;;;;;5074526;28;19928;-59
2023/03/24 11:55:21;;;;;;;;;;;20.40;46.10;;;;;;5074579;28;19924;-58
2023/03/24 11:57:50;;;;;;;;;;;20.40;46.00;;;;;;5074322;28;19966;-61
2023/03/24 12:00:18;;;;;;;;;;;20.40;45.80;;;;;;5075281;28;19925;-58
2023/03/24 12:02:48;;;;;;;;;;;20.40;45.50;;;;;;5075623;28;19927;-57
2023/03/24 12:05:21;;;;;;;;;;;20.40;45.20;;;;;;5075317;28;19942;-56
2023/03/24 12:07:53;;;;;;;;;;;20.40;45.10;;;;;;5074003;28;20309;-54
2023/03/24 12:10:26;;;;;;;;;;;20.40;44.70;;;;;;5075599;28;19927;-57
2023/03/24 12:12:55;;;;;;;;;;;20.40;44.50;;;;;;5073617;28;20364;-50
2023/03/24 12:15:29;;;;;;;;;;;20.30;44.30;;;;;;5058127;28;20430;-57
2023/03/24 12:17:58;;;;;;;;;;;20.30;44.40;;;;;;5057289;28;19920;-58
2023/03/24 12:20:26;;;;;;;;;;;20.30;44.60;;;;;;5057830;28;19920;-57
2023/03/24 12:22:57;;;;;;;;;;;20.30;44.70;;;;;;5075196;28;19924;-57
2023/03/24 12:25:29;;;;;;;;;;;20.30;44.80;;;;;;5057270;28;19921;-58
2023/03/24 12:27:59;;;;;;;;;;;20.30;44.90;;;;;;5057348;28;20023;-58
2023/03/24 12:30:28;;;;;;;;;;;20.30;44.90;;;;;;5057680;28;20434;-57
2023/03/24 12:32:56;;;;;;;;;;;20.30;44.90;;;;;;5075113;28;20255;-55
2023/03/24 12:35:27;;;;;;;;;;;20.30;44.90;;;;;;5057445;28;19969;-56
2023/03/24 12:37:58;;;;;;;;;;;20.40;45.10;;;;;;5065792;28;19920;-57
2023/03/24 12:40:43;;;;;;;;;;;20.40;45.10;;;;;;5073615;28;19920;-57
2023/03/24 12:43:12;;;;;;;;;;;20.40;45.00;;;;;;5074219;28;20405;-56
2023/03/24 12:45:39;;;;;;;;;;;20.40;45.00;;;;;;5072462;28;19924;-59
2023/03/24 12:48:29;;;;;;;;;;;20.40;45.10;;;;;;5056762;28;19994;-54
2023/03/24 12:50:59;;;;;;;;;;;20.40;45.10;;;;;;5056587;28;20396;-57
2023/03/24 12:53:31;;;;;;;;;;;20.40;45.10;;;;;;5056666;28;19920;-57
2023/03/24 12:55:58;;;;;;;;;;;20.40;45.20;;;;;;5057231;28;19924;-55
2023/03/24 12:58:26;;;;;;;;;;;20.40;45.30;;;;;;5056511;28;19927;-53
2023/03/24 13:00:57;;;;;;;;;;;20.40;45.40;;;;;;5057022;28;19929;-58
2023/03/24 13:03:27;;;;;;;;;;;20.40;45.40;;;;;;5056183;28;19959;-58
2023/03/24 13:05:53;;;;;;;;;;;20.40;45.50;;;;;;5056430;28;20351;-58
2023/03/24 13:08:28;;;;;;;;;;;20.40;45.50;;;;;;5056572;28;19925;-56
2023/03/24 13:10:58;;;;;;;;;;;20.50;45.60;;;;;;5057170;28;19920;-58
2023/03/24 13:13:27;;;;;;;;;;;20.50;45.60;;;;;;5074278;28;19924;-56
2023/03/24 13:15:55;;;;;;;;;;;20.50;45.60;;;;;;5056738;28;19924;-57
2023/03/24 13:18:25;;;;;;;;;;;20.50;45.60;;;;;;5065658;28;19986;-58
2023/03/24 13:20:53;;;;;;;;;;;20.50;45.70;;;;;;5074537;28;20331;-57
2023/03/24 13:23:25;;;;;;;;;;;20.50;45.60;;;;;;5073954;28;20113;-58
2023/03/24 13:25:52;;;;;;;;;;;20.50;45.70;;;;;;5072803;28;19920;-56
2023/03/24 13:28:21;;;;;;;;;;;20.50;45.70;;;;;;5072703;28;19963;-58
2023/03/24 13:30:48;;;;;;;;;;;20.50;45.70;;;;;;5073327;28;19974;-58
2023/03/24 13:33:15;;;;;;;;;;;20.60;45.80;;;;;;5057006;28;19924;-58
2023/03/24 13:35:48;;;;;;;;;;;20.60;45.80;;;;;;5051280;28;19964;-58
2023/03/24 13:38:16;;;;;;;;;;;20.60;45.80;;;;;;5053401;28;19921;-58
2023/03/24 13:40:43;;;;;;;;;;;20.60;45.80;;;;;;5052007;28;19924;-61
2023/03/24 13:43:11;;;;;;;;;;;20.60;45.70;;;;;;5072737;28;19924;-60
2023/03/24 13:45:41;;;;;;;;;;;20.60;45.30;;;;;;5070766;28;19943;-59
2023/03/24 13:48:28;;;;;;;;;;;20.60;43.10;;;;;;5056686;28;19977;-60
2023/03/24 13:50:56;;;;;;;;;;;20.50;41.50;;;;;;5054309;28;19956;-61
2023/03/24 13:53:29;;;;;;;;;;;20.50;40.90;;;;;;5061125;28;19970;-61
2023/03/24 13:55:56;;;;;;;;;;;20.40;40.00;;;;;;5056481;28;19970;-61
2023/03/24 13:58:23;;;;;;;;;;;20.30;40.10;;;;;;5055744;28;19925;-62
2023/03/24 14:01:05;;;;;;;;;;;20.20;39.60;;;;;;5068180;28;19989;-62
2023/03/24 14:03:33;;;;;;;;;;;20.20;39.70;;;;;;5069391;28;20420;-63
2023/03/24 14:06:00;;;;;;;;;;;20.10;39.20;;;;;;5055712;28;19920;-63
2023/03/24 14:08:43;;;;;;;;;;;20.10;39.00;;;;;;5056233;28;19921;-61
2023/03/24 14:11:25;;;;;;;;;;;20.00;38.60;;;;;;5055977;28;19924;-59
2023/03/24 14:13:52;;;;;;;;;;;20.00;38.30;;;;;;5062808;28;19970;-60
2023/03/24 14:16:36;;;;;;;;;;;19.90;37.70;;;;;;5067207;28;19927;-59
2023/03/24 14:19:17;;;;;;;;;;;19.90;37.40;;;;;;5053755;28;19943;-60
2023/03/24 14:21:44;;;;;;;;;;;19.90;37.00;;;;;;5065216;28;19927;-60
2023/03/24 14:24:16;;;;;;;;;;;19.80;36.90;;;;;;5070238;28;19924;-59